Time;durP1;ratioP1;P1;durP2;ratioP2;P2;SDS_P1;SDS_P2;PMS_P1;PMS_P2;Temp;Humidity;BMP_temperature;BMP_pressure;BME280_temperature;BME280_humidity;BME280_pressure;Samples;Min_cycle;Max_cycle;Signal;HPM_P1;HPM_P2
2023/07/10 00:01:30;;;;;;;21.67;13.80;;;18.40;99.90;;;;;;5038304;28;20052;-67
2023/07/10 00:03:55;;;;;;;24.13;14.60;;;18.10;99.90;;;;;;5045606;28;20029;-66
2023/07/10 00:06:21;;;;;;;29.98;14.93;;;17.80;99.90;;;;;;5038263;28;20041;-66
2023/07/10 00:08:47;;;;;;;29.20;14.27;;;18.30;99.90;;;;;;5035188;28;20036;-67
2023/07/10 00:11:14;;;;;;;25.38;14.15;;;17.80;99.90;;;;;;5036924;28;20068;-67
2023/07/10 00:13:40;;;;;;;27.13;15.05;;;18.20;99.90;;;;;;5033952;28;20421;-66
2023/07/10 00:16:14;;;;;;;24.92;13.93;;;17.80;99.90;;;;;;5045164;28;20052;-66
2023/07/10 00:18:39;;;;;;;29.63;15.85;;;18.00;99.90;;;;;;5050461;28;20107;-66
2023/07/10 00:21:05;;;;;;;28.38;14.77;;;18.90;99.90;;;;;;5036636;28;20496;-66
2023/07/10 00:23:30;;;;;;;26.23;14.02;;;17.80;99.90;;;;;;5043553;28;20064;-66
2023/07/10 00:25:56;;;;;;;24.75;15.18;;;17.90;99.90;;;;;;5046168;28;20624;-66
2023/07/10 00:28:22;;;;;;;23.65;15.45;;;18.70;99.90;;;;;;5018999;28;20080;-66
2023/07/10 00:30:49;;;;;;;27.90;15.60;;;18.70;99.90;;;;;;5029210;28;20057;-66
2023/07/10 00:33:19;;;;;;;27.15;14.80;;;17.80;99.90;;;;;;5039725;28;20068;-65
2023/07/10 00:35:45;;;;;;;29.80;16.17;;;17.80;99.90;;;;;;5045745;28;20044;-66
2023/07/10 00:38:16;;;;;;;27.52;15.30;;;17.70;99.90;;;;;;5034914;28;20326;-67
2023/07/10 00:40:45;;;;;;;26.27;16.08;;;17.80;99.90;;;;;;5039088;28;20358;-66
2023/07/10 00:43:26;;;;;;;27.95;17.13;;;18.40;99.90;;;;;;5026268;28;20045;-66
2023/07/10 00:45:53;;;;;;;29.98;15.63;;;18.10;99.90;;;;;;5037939;28;20110;-66
2023/07/10 00:48:57;;;;;;;27.25;15.98;;;18.50;99.90;;;;;;5049500;28;20632;-67
2023/07/10 00:52:00;;;;;;;29.77;15.98;;;17.70;99.90;;;;;;5020359;28;20057;-65
2023/07/10 00:54:38;;;;;;;23.63;16.02;;;17.70;99.90;;;;;;5012155;28;20065;-66
2023/07/10 00:57:15;;;;;;;32.35;17.02;;;18.30;99.90;;;;;;5029924;28;20064;-66
2023/07/10 00:59:42;;;;;;;26.35;16.50;;;17.90;99.90;;;;;;5034365;28;20135;-66
2023/07/10 01:02:07;;;;;;;27.42;16.75;;;17.80;99.90;;;;;;5036617;28;20337;-64
2023/07/10 01:04:45;;;;;;;26.23;15.82;;;18.20;99.90;;;;;;5050729;28;20041;-64
2023/07/10 01:07:14;;;;;;;25.88;15.63;;;18.50;99.90;;;;;;5032512;28;20428;-64
2023/07/10 01:09:43;;;;;;;28.48;14.48;;;18.00;99.90;;;;;;5022785;28;20932;-64
2023/07/10 01:12:08;;;;;;;22.70;15.00;;;18.40;99.90;;;;;;5047348;28;20044;-64
2023/07/10 01:14:35;;;;;;;26.88;14.80;;;18.10;99.90;;;;;;5028826;28;20125;-64
2023/07/10 01:17:05;;;;;;;25.67;13.93;;;18.50;99.90;;;;;;5033716;28;20037;-63
2023/07/10 01:19:32;;;;;;;23.58;14.50;;;18.10;99.90;;;;;;5032520;28;20064;-64
2023/07/10 01:21:58;;;;;;;21.85;13.43;;;17.70;99.90;;;;;;5031376;28;20041;-63
2023/07/10 01:24:24;;;;;;;26.63;13.63;;;18.60;99.90;;;;;;5043332;28;20121;-64
2023/07/10 01:26:51;;;;;;;23.73;14.98;;;18.30;99.90;;;;;;5041442;28;20037;-63
2023/07/10 01:29:24;;;;;;;23.05;13.75;;;18.20;99.90;;;;;;5026719;28;20500;-63
2023/07/10 01:31:52;;;;;;;22.10;14.20;;;17.90;99.90;;;;;;5039559;28;20112;-63
2023/07/10 01:34:19;;;;;;;22.35;13.60;;;18.50;99.90;;;;;;5043028;28;20045;-63
2023/07/10 01:36:46;;;;;;;22.20;14.90;;;18.20;99.90;;;;;;5031658;28;20049;-64
2023/07/10 01:39:15;;;;;;;24.90;14.40;;;18.30;99.90;;;;;;5048266;28;20037;-64
2023/07/10 01:41:44;;;;;;;25.38;15.75;;;17.90;99.90;;;;;;5031997;28;20037;-63
2023/07/10 01:44:27;;;;;;;24.73;15.95;;;18.20;99.90;;;;;;5030039;28;20033;-64
2023/07/10 01:46:53;;;;;;;30.48;16.48;;;18.30;99.90;;;;;;5028420;28;20045;-63
2023/07/10 01:49:26;;;;;;;27.05;17.55;;;18.40;99.90;;;;;;5045963;28;20485;-64
2023/07/10 01:51:53;;;;;;;34.95;17.35;;;18.10;99.90;;;;;;5034830;28;20152;-63
2023/07/10 01:54:19;;;;;;;36.75;17.65;;;18.50;99.90;;;;;;5037098;28;20124;-63
2023/07/10 01:56:45;;;;;;;25.75;16.55;;;18.40;99.90;;;;;;5034581;28;20131;-64
2023/07/10 01:59:11;;;;;;;30.02;18.02;;;18.00;99.90;;;;;;5027210;28;20033;-64
2023/07/10 02:01:36;;;;;;;34.40;19.38;;;18.20;99.90;;;;;;5044357;28;20037;-64
2023/07/10 02:04:03;;;;;;;29.13;18.50;;;18.40;99.90;;;;;;5046245;28;20033;-63
2023/07/10 02:06:31;;;;;;;32.05;19.70;;;18.60;99.90;;;;;;5039763;28;20116;-64
2023/07/10 02:08:56;;;;;;;38.30;21.23;;;18.20;99.90;;;;;;5040820;28;20076;-64
2023/07/10 02:11:22;;;;;;;37.15;22.75;;;18.00;99.90;;;;;;5039412;28;20966;-63
2023/07/10 02:13:47;;;;;;;39.38;21.25;;;18.50;99.90;;;;;;5031479;28;20404;-64
2023/07/10 02:16:14;;;;;;;43.33;22.88;;;18.50;99.90;;;;;;5040574;28;20045;-63
2023/07/10 02:18:40;;;;;;;40.03;21.95;;;18.40;99.90;;;;;;5045493;28;20060;-63
2023/07/10 02:21:05;;;;;;;45.13;23.02;;;18.20;99.90;;;;;;5045776;28;20040;-63
2023/07/10 02:23:31;;;;;;;45.97;23.17;;;18.10;99.90;;;;;;5045441;28;20632;-63
2023/07/10 02:25:56;;;;;;;39.50;23.08;;;18.00;99.90;;;;;;5036996;28;20552;-64
2023/07/10 02:28:22;;;;;;;36.13;20.75;;;17.90;99.90;;;;;;5044484;28;20048;-64
2023/07/10 02:30:48;;;;;;;33.45;22.60;;;18.20;99.90;;;;;;5032665;28;20461;-64
2023/07/10 02:33:14;;;;;;;40.58;23.20;;;18.10;99.90;;;;;;5040230;28;20445;-63
2023/07/10 02:35:40;;;;;;;39.80;21.27;;;17.90;99.90;;;;;;5031664;28;20041;-64
2023/07/10 02:38:06;;;;;;;37.78;22.23;;;18.00;99.90;;;;;;5037463;28;20037;-63
2023/07/10 02:40:32;;;;;;;42.88;23.52;;;17.80;99.90;;;;;;5039017;28;20441;-63
2023/07/10 02:42:58;;;;;;;41.75;21.58;;;17.90;99.90;;;;;;5041224;28;20039;-64
2023/07/10 02:45:24;;;;;;;46.92;22.98;;;17.90;99.90;;;;;;5036792;28;20143;-64
2023/07/10 02:47:49;;;;;;;43.00;22.98;;;17.90;99.90;;;;;;5038478;28;20124;-63
2023/07/10 02:50:15;;;;;;;38.15;22.23;;;17.80;99.90;;;;;;5041043;28;20437;-63
2023/07/10 02:52:40;;;;;;;40.60;22.23;;;17.80;99.90;;;;;;5038459;28;20040;-63
2023/07/10 02:55:06;;;;;;;37.80;22.60;;;17.90;99.90;;;;;;5031796;28;20114;-63
2023/07/10 02:57:32;;;;;;;38.92;22.95;;;17.80;99.90;;;;;;5039170;28;20040;-64
2023/07/10 02:59:58;;;;;;;36.90;22.38;;;17.80;99.90;;;;;;5040170;28;20452;-63
2023/07/10 03:02:23;;;;;;;38.88;22.15;;;17.90;99.90;;;;;;5032993;28;20105;-64
2023/07/10 03:04:49;;;;;;;36.25;21.80;;;18.00;99.90;;;;;;5026739;28;20098;-64
2023/07/10 03:07:14;;;;;;;38.30;24.05;;;17.90;99.90;;;;;;5035219;28;20116;-63
2023/07/10 03:09:40;;;;;;;40.17;23.20;;;17.80;99.90;;;;;;5032218;28;20072;-64
2023/07/10 03:12:06;;;;;;;40.47;23.08;;;17.80;99.90;;;;;;5034744;28;20144;-63
2023/07/10 03:14:32;;;;;;;40.58;24.80;;;17.80;99.90;;;;;;5044752;28;20453;-64
2023/07/10 03:16:59;;;;;;;42.40;23.55;;;17.80;99.90;;;;;;5042488;28;20037;-66
2023/07/10 03:19:28;;;;;;;43.50;23.17;;;17.80;99.90;;;;;;5033054;28;20436;-65
2023/07/10 03:21:54;;;;;;;42.92;24.50;;;17.60;99.90;;;;;;5036365;28;20096;-65
2023/07/10 03:24:20;;;;;;;37.63;22.90;;;17.70;99.90;;;;;;5038555;28;20492;-65
2023/07/10 03:26:47;;;;;;;40.00;23.52;;;17.60;99.90;;;;;;5037672;28;20594;-65
2023/07/10 03:29:14;;;;;;;36.35;21.60;;;17.70;99.90;;;;;;5039560;28;20087;-65
2023/07/10 03:31:40;;;;;;;39.40;23.02;;;17.80;99.90;;;;;;5044159;28;20202;-65
2023/07/10 03:34:06;;;;;;;37.72;22.85;;;17.80;99.90;;;;;;5034969;28;20041;-65
2023/07/10 03:36:32;;;;;;;40.65;23.90;;;17.70;99.90;;;;;;5043286;28;20346;-65
2023/07/10 03:38:58;;;;;;;39.95;23.05;;;17.60;99.90;;;;;;5034380;28;20067;-65
2023/07/10 03:41:24;;;;;;;38.70;21.38;;;17.90;99.90;;;;;;5027954;28;20038;-65
2023/07/10 03:43:50;;;;;;;39.42;23.60;;;17.70;99.90;;;;;;5042634;28;20494;-66
2023/07/10 03:46:16;;;;;;;39.03;21.80;;;17.70;99.90;;;;;;5027127;28;20037;-64
2023/07/10 03:48:42;;;;;;;34.70;22.67;;;17.60;99.90;;;;;;5034921;28;20146;-65
2023/07/10 03:51:08;;;;;;;30.45;20.52;;;17.60;99.90;;;;;;5038045;28;20408;-64
2023/07/10 03:53:34;;;;;;;38.20;21.90;;;17.80;99.90;;;;;;5044298;28;20041;-65
2023/07/10 03:55:59;;;;;;;33.97;21.17;;;17.70;99.90;;;;;;5044960;28;20128;-65
2023/07/10 03:58:28;;;;;;;35.97;21.92;;;17.60;99.90;;;;;;5041797;28;20105;-65
2023/07/10 04:00:55;;;;;;;34.60;20.33;;;17.70;99.90;;;;;;5034259;28;20091;-65
2023/07/10 04:03:23;;;;;;;30.90;20.25;;;17.60;99.90;;;;;;5035308;28;20117;-64
2023/07/10 04:05:52;;;;;;;34.75;21.20;;;17.60;99.90;;;;;;5036492;28;20037;-64
2023/07/10 04:08:22;;;;;;;35.10;20.60;;;17.50;99.90;;;;;;5041621;28;20440;-65
2023/07/10 04:10:49;;;;;;;34.50;21.45;;;17.50;99.90;;;;;;5060649;28;20049;-65
2023/07/10 04:13:15;;;;;;;36.10;21.63;;;17.70;99.90;;;;;;5040499;28;20136;-64
2023/07/10 04:15:40;;;;;;;32.13;20.65;;;17.50;99.90;;;;;;5040331;28;20045;-64
2023/07/10 04:18:06;;;;;;;34.63;19.70;;;17.50;99.90;;;;;;5040778;28;20033;-64
2023/07/10 04:20:31;;;;;;;30.58;19.65;;;17.50;99.90;;;;;;5034245;28;20067;-64
2023/07/10 04:22:57;;;;;;;34.35;21.33;;;17.70;99.90;;;;;;5030439;28;20041;-64
2023/07/10 04:25:23;;;;;;;34.35;20.67;;;17.50;99.90;;;;;;5043003;28;20341;-64
2023/07/10 04:27:48;;;;;;;36.15;21.17;;;17.80;99.90;;;;;;5047400;28;20099;-64
2023/07/10 04:30:15;;;;;;;38.30;21.25;;;17.80;99.90;;;;;;5033378;28;20116;-64
2023/07/10 04:32:40;;;;;;;37.08;20.30;;;17.70;99.90;;;;;;5038185;28;20052;-64
2023/07/10 04:35:06;;;;;;;30.83;18.92;;;17.70;99.90;;;;;;5040427;28;20033;-64
2023/07/10 04:37:32;;;;;;;33.90;20.38;;;17.80;99.90;;;;;;5038513;28;20414;-64
2023/07/10 04:39:57;;;;;;;32.45;21.05;;;17.60;99.90;;;;;;5036465;28;20037;-64
2023/07/10 04:42:23;;;;;;;33.10;20.30;;;17.60;99.90;;;;;;5039779;28;20044;-64
2023/07/10 04:44:49;;;;;;;29.67;18.58;;;17.70;99.90;;;;;;5038322;28;20041;-64
2023/07/10 04:47:14;;;;;;;28.98;18.13;;;17.80;99.90;;;;;;5038419;28;20040;-64
2023/07/10 04:49:40;;;;;;;34.72;18.35;;;17.80;99.90;;;;;;5039901;28;20061;-63
2023/07/10 04:52:06;;;;;;;27.30;16.27;;;17.60;99.90;;;;;;5031270;28;20080;-64
2023/07/10 04:54:31;;;;;;;30.58;15.82;;;17.60;99.90;;;;;;5040268;28;20104;-64
2023/07/10 04:56:57;;;;;;;23.35;15.30;;;17.60;99.90;;;;;;5051009;28;20041;-64
2023/07/10 04:59:23;;;;;;;24.73;15.30;;;17.70;99.90;;;;;;5029383;28;20041;-64
2023/07/10 05:01:48;;;;;;;28.05;16.08;;;17.70;99.90;;;;;;5029260;28;20128;-64
2023/07/10 05:04:14;;;;;;;25.88;16.23;;;17.70;99.90;;;;;;5044315;28;20055;-63
2023/07/10 05:06:39;;;;;;;27.48;16.30;;;17.70;99.90;;;;;;5040971;28;20040;-64
2023/07/10 05:09:05;;;;;;;30.70;17.45;;;17.80;99.90;;;;;;5029661;28;20107;-64
2023/07/10 05:11:31;;;;;;;30.52;16.85;;;17.80;99.90;;;;;;5044410;28;20041;-64
2023/07/10 05:13:57;;;;;;;28.42;16.98;;;17.70;99.90;;;;;;5041003;28;20091;-64
2023/07/10 05:16:24;;;;;;;28.77;15.30;;;17.90;99.90;;;;;;5036856;28;20057;-64
2023/07/10 05:18:49;;;;;;;30.73;16.92;;;17.70;99.90;;;;;;5029097;28;20041;-64
2023/07/10 05:21:15;;;;;;;26.38;15.95;;;17.70;99.90;;;;;;5035063;28;20030;-64
2023/07/10 05:23:41;;;;;;;19.55;13.63;;;17.70;99.90;;;;;;5038912;28;20042;-64
2023/07/10 05:26:13;;;;;;;22.40;14.02;;;17.50;99.90;;;;;;5030730;28;20148;-64
2023/07/10 05:28:39;;;;;;;24.15;13.23;;;17.60;99.90;;;;;;5042955;28;20332;-64
2023/07/10 05:31:06;;;;;;;21.52;13.93;;;17.70;99.90;;;;;;5021217;28;20064;-65
2023/07/10 05:33:32;;;;;;;21.63;12.40;;;17.60;99.90;;;;;;5038327;28;20163;-64
2023/07/10 05:36:00;;;;;;;18.15;11.38;;;17.60;99.90;;;;;;5041971;28;22903;-64
2023/07/10 05:38:28;;;;;;;17.55;11.65;;;17.60;99.90;;;;;;5031638;28;20507;-64
2023/07/10 05:40:54;;;;;;;23.38;12.10;;;17.60;99.90;;;;;;5039084;28;20411;-64
2023/07/10 05:43:20;;;;;;;20.65;12.15;;;17.60;99.90;;;;;;5036022;28;20036;-65
2023/07/10 05:45:47;;;;;;;17.52;11.43;;;17.60;99.90;;;;;;5030457;28;20045;-65
2023/07/10 05:48:13;;;;;;;15.88;11.43;;;17.70;99.90;;;;;;5040595;28;20041;-65
2023/07/10 05:50:38;;;;;;;15.32;11.02;;;17.80;99.90;;;;;;5047019;28;20529;-65
2023/07/10 05:53:04;;;;;;;18.85;12.18;;;17.80;99.90;;;;;;5029455;28;20057;-64
2023/07/10 05:55:30;;;;;;;17.33;11.02;;;17.80;99.90;;;;;;5040999;28;20052;-64
2023/07/10 05:57:56;;;;;;;18.23;10.68;;;17.70;99.90;;;;;;5040035;28;20040;-64
2023/07/10 06:00:21;;;;;;;19.08;11.23;;;17.70;99.90;;;;;;5022269;28;20060;-63
2023/07/10 06:02:47;;;;;;;18.98;11.43;;;17.80;99.90;;;;;;5040927;28;20041;-65
2023/07/10 06:05:13;;;;;;;17.92;12.02;;;17.80;99.90;;;;;;5030267;28;20060;-64
2023/07/10 06:07:39;;;;;;;16.30;11.40;;;17.90;99.90;;;;;;5036083;28;20430;-65
2023/07/10 06:10:05;;;;;;;15.73;10.95;;;18.00;99.90;;;;;;5041229;28;20036;-64
2023/07/10 06:12:31;;;;;;;18.77;12.05;;;18.10;99.90;;;;;;5044089;28;20123;-64
2023/07/10 06:14:56;;;;;;;19.08;12.05;;;18.00;99.90;;;;;;5033475;28;20144;-64
2023/07/10 06:17:22;;;;;;;16.45;10.43;;;18.00;99.90;;;;;;5019839;28;20049;-65
2023/07/10 06:19:47;;;;;;;19.58;12.55;;;18.10;99.90;;;;;;5039472;28;20041;-64
2023/07/10 06:22:13;;;;;;;16.50;11.05;;;18.20;99.90;;;;;;5034077;28;20128;-64
2023/07/10 06:24:39;;;;;;;17.20;10.65;;;18.20;99.90;;;;;;5040687;28;20127;-64
2023/07/10 06:27:06;;;;;;;15.98;12.13;;;18.20;99.90;;;;;;5046145;28;20091;-65
2023/07/10 06:29:33;;;;;;;17.90;11.57;;;18.20;99.90;;;;;;5040182;28;20483;-65
2023/07/10 06:31:59;;;;;;;17.67;11.00;;;18.40;99.90;;;;;;5039188;28;20472;-65
2023/07/10 06:34:25;;;;;;;18.52;10.95;;;18.30;99.90;;;;;;5045147;28;20063;-65
2023/07/10 06:36:50;;;;;;;17.63;11.50;;;18.30;99.90;;;;;;5046402;28;20122;-64
2023/07/10 06:39:16;;;;;;;14.05;10.48;;;18.40;99.90;;;;;;5037078;28;20047;-64
2023/07/10 06:41:41;;;;;;;18.00;9.85;;;18.40;99.90;;;;;;5036544;28;20120;-64
2023/07/10 06:44:07;;;;;;;14.48;10.30;;;18.40;99.90;;;;;;5041038;28;20029;-63
2023/07/10 06:46:33;;;;;;;16.88;9.60;;;18.50;99.90;;;;;;5033666;28;20309;-63
2023/07/10 06:48:58;;;;;;;11.38;7.70;;;18.50;99.90;;;;;;5035382;28;20133;-64
2023/07/10 06:51:24;;;;;;;12.07;6.30;;;18.60;99.90;;;;;;5020082;28;20489;-65
2023/07/10 06:53:50;;;;;;;10.30;5.53;;;18.70;99.90;;;;;;5026969;28;20077;-63
2023/07/10 06:56:15;;;;;;;13.10;5.07;;;18.70;99.90;;;;;;5028249;28;20514;-63
2023/07/10 06:58:41;;;;;;;7.60;5.40;;;18.90;99.90;;;;;;5033971;28;20755;-63
2023/07/10 07:01:06;;;;;;;8.55;4.47;;;18.90;99.90;;;;;;5038403;28;20074;-63
2023/07/10 07:03:32;;;;;;;11.85;4.95;;;18.90;99.90;;;;;;5032613;28;20117;-64
2023/07/10 07:05:58;;;;;;;9.23;4.30;;;18.90;99.90;;;;;;5039450;28;20029;-64
2023/07/10 07:08:24;;;;;;;7.45;4.15;;;19.00;99.90;;;;;;5041988;28;20357;-64
2023/07/10 07:10:52;;;;;;;9.77;4.95;;;19.00;99.90;;;;;;5011652;28;20076;-67
2023/07/10 07:13:18;;;;;;;10.25;4.50;;;19.10;99.90;;;;;;5042899;28;20422;-64
2023/07/10 07:15:51;;;;;;;7.53;4.22;;;19.20;99.90;;;;;;5045753;28;20152;-64
2023/07/10 07:18:17;;;;;;;6.50;4.15;;;19.20;99.90;;;;;;5028538;28;20414;-64
2023/07/10 07:20:42;;;;;;;9.38;4.03;;;19.10;99.90;;;;;;5031735;28;20116;-64
2023/07/10 07:23:08;;;;;;;9.32;3.67;;;19.30;99.90;;;;;;5028390;28;20037;-64
2023/07/10 07:25:33;;;;;;;8.60;3.97;;;19.60;99.90;;;;;;5026798;28;20116;-63
2023/07/10 07:27:59;;;;;;;9.50;3.90;;;19.90;99.90;;;;;;5033000;28;20049;-63
2023/07/10 07:30:27;;;;;;;9.73;3.38;;;20.10;99.90;;;;;;5026645;28;20041;-64
2023/07/10 07:32:53;;;;;;;8.75;2.85;;;20.50;99.90;;;;;;5029260;28;20441;-65
2023/07/10 07:35:18;;;;;;;5.65;3.47;;;20.60;99.90;;;;;;5034451;28;20047;-65
2023/07/10 07:37:44;;;;;;;9.30;2.72;;;20.80;99.90;;;;;;5028073;28;20037;-65
2023/07/10 07:40:10;;;;;;;6.80;3.03;;;21.00;99.90;;;;;;5032964;28;20040;-65
2023/07/10 07:42:36;;;;;;;6.75;2.60;;;21.30;99.90;;;;;;5040003;28;20106;-65
2023/07/10 07:45:02;;;;;;;5.03;2.28;;;21.40;99.90;;;;;;5032398;28;20038;-66
2023/07/10 07:47:28;;;;;;;8.95;2.15;;;21.70;99.90;;;;;;5034782;28;20046;-65
2023/07/10 07:49:54;;;;;;;5.15;2.50;;;21.60;99.90;;;;;;5028259;28;20053;-65
2023/07/10 07:52:19;;;;;;;6.47;2.45;;;21.80;99.90;;;;;;5030259;28;20095;-65
2023/07/10 07:54:45;;;;;;;6.47;2.67;;;21.80;99.90;;;;;;5031054;28;20048;-65
2023/07/10 07:57:11;;;;;;;5.82;2.17;;;21.70;99.90;;;;;;5029373;28;20051;-65
2023/07/10 07:59:36;;;;;;;7.07;2.58;;;22.00;99.90;;;;;;5033260;28;20037;-64
2023/07/10 08:02:02;;;;;;;4.70;2.67;;;22.20;99.90;;;;;;5032752;28;20049;-64
2023/07/10 08:04:29;;;;;;;5.85;1.95;;;22.40;99.90;;;;;;5032125;28;20047;-64
2023/07/10 08:06:57;;;;;;;5.70;2.17;;;22.70;99.90;;;;;;5005739;28;20052;-66
2023/07/10 08:09:23;;;;;;;4.63;1.90;;;23.00;99.90;;;;;;5038301;28;20378;-65
2023/07/10 08:11:49;;;;;;;5.07;1.88;;;23.30;99.90;;;;;;5036651;28;20041;-65
2023/07/10 08:14:14;;;;;;;5.15;2.15;;;23.40;99.90;;;;;;5030616;28;20122;-64
2023/07/10 08:16:41;;;;;;;3.33;1.90;;;23.60;98.30;;;;;;5031930;28;20064;-66
2023/07/10 08:19:06;;;;;;;5.20;1.80;;;23.70;96.70;;;;;;5029228;28;20485;-64
2023/07/10 08:21:32;;;;;;;7.03;1.98;;;24.10;95.10;;;;;;5023433;28;20068;-64
2023/07/10 08:23:57;;;;;;;4.80;1.73;;;24.30;93.10;;;;;;5033806;28;20037;-64
2023/07/10 08:26:23;;;;;;;5.65;2.40;;;24.10;92.00;;;;;;5025884;28;20194;-64
2023/07/10 08:28:49;;;;;;;4.53;2.28;;;24.30;90.60;;;;;;5048074;28;20045;-64
2023/07/10 08:31:18;;;;;;;7.88;2.05;;;24.00;90.20;;;;;;5026931;28;20060;-65
2023/07/10 08:33:44;;;;;;;6.93;1.60;;;24.10;86.30;;;;;;5025416;28;20062;-65
2023/07/10 08:36:10;;;;;;;5.85;2.10;;;24.10;84.90;;;;;;5043612;28;20041;-64
2023/07/10 08:38:37;;;;;;;9.05;2.38;;;24.50;81.90;;;;;;5044624;28;20207;-63
2023/07/10 08:41:16;;;;;;;8.30;2.30;;;24.70;78.90;;;;;;5030362;28;20053;-63
2023/07/10 08:43:42;;;;;;;6.50;1.80;;;24.90;73.70;;;;;;5031274;28;20107;-65
2023/07/10 08:46:14;;;;;;;7.50;1.98;;;25.30;76.60;;;;;;5008673;28;20068;-66
2023/07/10 08:48:50;;;;;;;3.92;1.70;;;25.20;75.00;;;;;;5048964;28;20056;-64
2023/07/10 08:51:21;;;;;;;6.65;1.92;;;25.60;69.80;;;;;;5037568;28;20056;-64
2023/07/10 08:54:04;;;;;;;5.80;1.52;;;25.50;73.60;;;;;;5036659;28;20045;-66
2023/07/10 08:56:45;;;;;;;7.25;1.65;;;25.70;66.40;;;;;;5035614;28;20050;-65
2023/07/10 08:59:24;;;;;;;4.82;1.98;;;26.10;68.80;;;;;;5035628;28;20037;-66
2023/07/10 09:01:50;;;;;;;5.50;2.08;;;26.20;65.00;;;;;;5033937;28;20052;-65
2023/07/10 09:04:19;;;;;;;3.33;1.45;;;26.20;67.60;;;;;;5034753;28;20528;-64
2023/07/10 09:06:56;;;;;;;4.97;1.92;;;26.20;66.70;;;;;;5044800;28;20155;-66
2023/07/10 09:09:45;;;;;;;7.53;2.15;;;25.90;60.90;;;;;;5038855;28;20072;-65
2023/07/10 09:12:21;;;;;;;5.65;1.70;;;25.80;65.30;;;;;;5043619;28;20091;-65
2023/07/10 09:14:52;;;;;;;6.32;1.80;;;25.70;57.90;;;;;;5046060;28;20049;-67
2023/07/10 09:17:44;;;;;;;3.88;1.70;;;26.40;62.80;;;;;;5034481;28;20465;-65
2023/07/10 09:20:11;;;;;;;4.03;1.50;;;26.80;60.40;;;;;;5033055;28;20052;-64
2023/07/10 09:22:43;;;;;;;6.22;2.08;;;26.70;59.40;;;;;;5033279;28;20041;-64
2023/07/10 09:25:15;;;;;;;5.03;1.70;;;26.50;59.40;;;;;;5039989;28;20567;-65
2023/07/10 09:27:42;;;;;;;3.90;1.90;;;26.70;58.20;;;;;;5022006;28;20069;-67
2023/07/10 09:30:47;;;;;;;3.28;1.63;;;26.80;57.60;;;;;;5008958;28;20361;-64
2023/07/10 09:33:13;;;;;;;5.90;1.50;;;26.60;57.20;;;;;;5033434;28;20049;-65
2023/07/10 09:35:43;;;;;;;5.07;1.60;;;27.50;58.60;;;;;;5041949;28;20052;-64
2023/07/10 09:38:18;;;;;;;4.28;1.33;;;28.20;56.20;;;;;;5034973;28;20120;-65
2023/07/10 09:40:48;;;;;;;4.97;1.70;;;29.00;50.00;;;;;;5032364;28;20044;-65
2023/07/10 09:43:20;;;;;;;;;;;29.50;51.60;;;;;;5030636;28;20049;-66
2023/07/10 09:45:49;;;;;;;3.95;1.63;;;29.50;46.60;;;;;;5033340;28;20025;-66
2023/07/10 09:48:24;;;;;;;3.63;1.77;;;30.40;52.20;;;;;;5027820;28;20067;-64
2023/07/10 09:50:52;;;;;;;3.47;1.45;;;30.20;46.80;;;;;;5039452;28;20046;-65
2023/07/10 09:53:32;;;;;;;9.35;1.90;;;29.70;49.80;;;;;;5033646;28;20053;-65
2023/07/10 09:55:59;;;;;;;7.00;2.08;;;28.90;51.70;;;;;;5023185;28;20136;-65
2023/07/10 09:58:25;;;;;;;6.93;1.70;;;28.10;52.00;;;;;;5031751;28;20087;-64
2023/07/10 10:00:51;;;;;;;5.32;1.70;;;28.60;51.20;;;;;;4996689;28;20445;-64
2023/07/10 10:03:21;;;;;;;5.63;1.77;;;29.00;50.00;;;;;;5023674;28;20525;-65
2023/07/10 10:05:56;;;;;;;5.13;1.70;;;28.20;48.20;;;;;;5035437;28;20055;-66
2023/07/10 10:08:31;;;;;;;6.32;1.70;;;27.70;50.50;;;;;;5012324;28;20191;-65
2023/07/10 10:11:05;;;;;;;6.43;2.13;;;27.60;51.30;;;;;;5025255;28;20095;-64
2023/07/10 10:13:56;;;;;;;6.38;1.90;;;28.00;50.10;;;;;;5017387;28;20040;-67
2023/07/10 10:17:07;;;;;;;5.38;1.92;;;29.30;50.80;;;;;;5013295;28;20036;-65
2023/07/10 10:19:43;;;;;;;4.22;1.60;;;30.80;52.00;;;;;;5022062;28;20493;-66
2023/07/10 10:22:13;;;;;;;5.18;1.67;;;31.00;46.80;;;;;;5026510;28;20060;-64
2023/07/10 10:24:39;;;;;;;4.68;2.10;;;30.70;47.20;;;;;;5032915;28;20049;-64
2023/07/10 10:27:38;;;;;;;6.60;1.70;;;30.80;47.30;;;;;;5032886;28;20452;-66
2023/07/10 10:30:18;;;;;;;7.13;1.90;;;29.80;48.20;;;;;;5029069;28;20041;-67
2023/07/10 10:33:06;;;;;;;5.05;1.45;;;28.80;47.20;;;;;;5029005;28;20045;-66
2023/07/10 10:35:51;;;;;;;3.53;1.63;;;28.20;48.70;;;;;;5028737;28;20446;-64
2023/07/10 10:38:54;;;;;;;5.95;1.92;;;29.00;46.30;;;;;;5025987;28;20048;-65
2023/07/10 10:41:26;;;;;;;5.60;1.70;;;30.00;40.70;;;;;;5020291;28;20629;-65
2023/07/10 10:43:57;;;;;;;5.80;1.95;;;30.40;44.10;;;;;;5038624;28;20095;-65
2023/07/10 10:46:39;;;;;;;3.53;1.55;;;31.30;43.00;;;;;;5042649;28;20077;-67
2023/07/10 10:49:21;;;;;;;5.57;1.40;;;32.00;38.80;;;;;;5036702;28;20060;-66
2023/07/10 10:52:20;;;;;;;4.85;1.60;;;33.40;43.20;;;;;;5045770;28;20095;-65
2023/07/10 10:54:49;;;;;;;;;;;34.20;43.30;;;;;;5047763;28;20381;-66
2023/07/10 10:57:31;;;;;;;3.45;1.40;;;34.10;41.40;;;;;;5042158;28;19999;-65
2023/07/10 11:00:05;;;;;;;3.40;1.20;;;33.40;42.10;;;;;;5012409;28;20056;-65
2023/07/10 11:02:49;;;;;;;4.30;1.60;;;31.90;41.20;;;;;;5044747;28;20110;-66
2023/07/10 11:05:33;;;;;;;5.18;1.67;;;31.00;42.50;;;;;;5049885;28;20068;-65
2023/07/10 11:08:05;;;;;;;5.07;1.75;;;30.40;43.20;;;;;;5047468;28;20094;-65
2023/07/10 11:10:39;;;;;;;3.83;1.35;;;29.20;42.00;;;;;;5042346;28;20045;-64
2023/07/10 11:13:10;;;;;;;5.40;1.60;;;29.00;43.60;;;;;;5034316;28;20120;-65
2023/07/10 11:15:36;;;;;;;6.85;1.70;;;28.80;45.40;;;;;;5040928;28;20061;-65
2023/07/10 11:18:03;;;;;;;7.32;1.55;;;28.70;44.30;;;;;;5041615;28;20033;-67
2023/07/10 11:20:30;;;;;;;5.45;1.52;;;28.10;44.70;;;;;;5042619;28;20067;-65
2023/07/10 11:23:02;;;;;;;3.58;1.65;;;27.70;46.00;;;;;;5033632;28;20045;-66
2023/07/10 11:25:32;;;;;;;4.50;1.50;;;27.40;45.70;;;;;;5030948;28;20037;-64
2023/07/10 11:28:04;;;;;;;5.80;1.77;;;27.40;45.40;;;;;;5037680;28;20483;-65
2023/07/10 11:30:35;;;;;;;5.95;1.60;;;27.50;46.20;;;;;;5033242;28;20095;-67
2023/07/10 11:33:04;;;;;;;5.68;1.55;;;27.50;46.60;;;;;;4991451;28;20119;-64
2023/07/10 11:35:31;;;;;;;5.55;1.30;;;27.60;47.30;;;;;;5027026;28;20061;-63
2023/07/10 11:38:02;;;;;;;8.77;1.80;;;27.50;46.70;;;;;;5044271;28;20136;-65
2023/07/10 11:40:28;;;;;;;6.10;1.73;;;27.40;45.70;;;;;;5039791;28;20428;-64
2023/07/10 11:43:21;;;;;;;11.20;1.65;;;27.50;45.70;;;;;;5034746;28;20134;-69
2023/07/10 11:45:53;;;;;;;5.47;1.10;;;27.50;45.60;;;;;;5036629;28;20092;-66
2023/07/10 11:48:40;;;;;;;4.03;1.30;;;27.60;44.60;;;;;;5029281;28;20464;-65
2023/07/10 11:51:34;;;;;;;4.88;1.25;;;27.90;47.50;;;;;;5032601;28;20093;-66
2023/07/10 11:54:04;;;;;;;4.43;1.20;;;27.80;45.00;;;;;;5032648;28;20069;-66
2023/07/10 11:56:31;;;;;;;5.30;1.23;;;27.70;43.50;;;;;;5045510;28;20057;-65
2023/07/10 11:58:59;;;;;;;5.35;1.42;;;27.60;42.30;;;;;;5034116;28;20165;-67
2023/07/10 12:01:28;;;;;;;5.97;1.15;;;27.60;43.40;;;;;;5007508;28;20508;-64
2023/07/10 12:03:55;;;;;;;4.22;1.20;;;27.80;41.70;;;;;;5040334;28;20475;-65
2023/07/10 12:06:23;;;;;;;4.43;1.38;;;27.80;41.30;;;;;;5044414;28;20040;-64
2023/07/10 12:08:52;;;;;;;4.75;1.13;;;27.70;42.20;;;;;;5035891;28;20060;-64
2023/07/10 12:11:37;;;;;;;5.70;1.40;;;27.60;42.00;;;;;;5025764;28;20118;-65
2023/07/10 12:14:15;;;;;;;5.97;1.30;;;27.70;40.10;;;;;;5033149;28;20041;-65
2023/07/10 12:16:47;;;;;;;3.97;1.45;;;27.80;41.00;;;;;;5037964;28;20045;-66
2023/07/10 12:19:16;;;;;;;4.35;1.13;;;28.00;41.60;;;;;;5025551;28;20084;-65
2023/07/10 12:21:43;;;;;;;5.35;1.20;;;28.10;41.90;;;;;;5040921;28;20170;-63
2023/07/10 12:24:14;;;;;;;4.65;1.17;;;28.80;42.20;;;;;;5021773;28;20041;-65
2023/07/10 12:26:40;;;;;;;5.85;1.75;;;30.20;42.90;;;;;;5035384;28;20037;-66
2023/07/10 12:29:13;;;;;;;6.97;1.27;;;30.80;40.30;;;;;;5008913;28;20542;-63
2023/07/10 12:31:41;;;;;;;4.43;0.98;;;31.00;38.50;;;;;;5033565;28;20045;-63
2023/07/10 12:34:23;;;;;;;4.53;1.02;;;31.50;38.40;;;;;;5024822;28;20037;-64
2023/07/10 12:36:51;;;;;;;4.57;1.48;;;31.40;36.50;;;;;;5039838;28;20053;-65
2023/07/10 12:39:17;;;;;;;5.43;1.88;;;31.50;37.90;;;;;;5021139;28;20089;-65
2023/07/10 12:41:45;;;;;;;7.03;1.40;;;31.10;37.20;;;;;;5030780;28;20029;-66
2023/07/10 12:44:41;;;;;;;6.07;1.58;;;30.60;38.40;;;;;;5023923;28;20048;-65
2023/07/10 12:47:08;;;;;;;5.00;1.42;;;30.80;42.10;;;;;;5023591;28;20053;-64